Time;durP1;ratioP1;P1;durP2;ratioP2;P2;SDS_P1;SDS_P2;PMS_P1;PMS_P2;Temp;Humidity;BMP_temperature;BMP_pressure;BME280_temperature;BME280_humidity;BME280_pressure;Samples;Min_cycle;Max_cycle;Signal;HPM_P1;HPM_P2
2022/06/05 00:00:14;;;;;;;9.50;6.40;;;;;;;38.09;nan;93936.75;4999950;28;20276;-93
2022/06/05 00:03:17;;;;;;;7.67;6.57;;;;;;;38.44;nan;93934.09;5010294;28;20592;-93
2022/06/05 00:06:05;;;;;;;7.57;6.47;;;;;;;37.20;nan;93932.22;5006770;28;20194;-94
2022/06/05 00:09:01;;;;;;;8.97;6.43;;;;;;;37.73;nan;93927.69;5014181;28;20282;-91
2022/06/05 00:11:54;;;;;;;8.60;6.63;;;;;;;37.66;nan;93929.38;5017471;28;20781;-93
2022/06/05 00:14:39;;;;;;;10.90;7.70;;;;;;;37.25;nan;93918.91;5033551;28;20206;-92
2022/06/05 00:17:23;;;;;;;7.80;7.07;;;;;;;37.87;nan;93923.56;5004611;28;20206;-93
2022/06/05 00:20:09;;;;;;;9.73;7.10;;;;;;;37.54;nan;93918.03;5003653;28;20537;-91
2022/06/05 00:22:53;;;;;;;7.97;6.40;;;;;;;36.80;nan;93924.63;5021904;28;20341;-91
2022/06/05 00:26:00;;;;;;;6.87;6.27;;;;;;;36.72;nan;93925.59;5017189;28;20621;-92
2022/06/05 00:29:06;;;;;;;7.60;6.57;;;;;;;37.50;nan;93924.00;5000446;28;20265;-92
2022/06/05 00:32:21;;;;;;;9.73;6.20;;;;;;;37.66;nan;93917.66;5019412;28;20217;-93
2022/06/05 00:35:11;;;;;;;7.47;6.07;;;;;;;36.58;nan;93913.56;5013285;28;20195;-94
2022/06/05 00:38:03;;;;;;;7.70;5.37;;;;;;;36.44;nan;93909.53;5018049;28;20230;-92
2022/06/05 00:40:57;;;;;;;7.87;5.47;;;;;;;37.22;nan;93919.75;5010894;28;20242;-92
2022/06/05 00:43:41;;;;;;;8.33;6.40;;;;;;;35.24;nan;93914.00;5016580;28;20279;-92
2022/06/05 00:46:26;;;;;;;7.23;6.50;;;;;;;36.95;nan;93922.72;5003372;28;20596;-91
2022/06/05 00:49:12;;;;;;;7.17;6.40;;;;;;;37.07;nan;93921.66;5032659;28;20341;-93
2022/06/05 00:51:56;;;;;;;8.03;6.43;;;;;;;35.81;nan;93913.38;5002420;28;20203;-92
2022/06/05 00:54:40;;;;;;;7.67;6.10;;;;;;;36.99;nan;93910.91;5032546;28;20217;-93
2022/06/05 00:57:29;;;;;;;5.77;5.27;;;;;;;36.91;nan;93904.63;5003852;28;20631;-93
2022/06/05 01:00:35;;;;;;;8.30;6.30;;;;;;;36.56;nan;93902.66;5008421;28;20718;-92
2022/06/05 01:03:21;;;;;;;6.77;6.17;;;;;;;35.64;nan;93907.19;5005284;28;20201;-94
2022/06/05 01:06:06;;;;;;;7.13;6.07;;;;;;;35.62;nan;93898.50;5016431;28;20214;-93
2022/06/05 01:08:50;;;;;;;8.67;6.90;;;;;;;36.35;nan;93902.50;5004700;28;20217;-93
2022/06/05 01:11:40;;;;;;;8.63;6.73;;;;;;;36.12;nan;93898.72;5032879;28;20691;-92
2022/06/05 01:14:36;;;;;;;7.13;6.53;;;;;;;36.59;nan;93894.56;5036373;28;20198;-92
2022/06/05 01:17:36;;;;;;;7.07;6.13;;;;;;;35.40;nan;93883.75;4997762;28;20206;-92
2022/06/05 01:20:47;;;;;;;7.23;5.67;;;;;;;36.11;nan;93879.75;5015010;28;20234;-92
2022/06/05 01:23:47;;;;;;;9.73;6.03;;;;;;;36.01;nan;93871.28;5010974;28;20262;-92
2022/06/05 01:26:38;;;;;;;7.03;6.33;;;;;;;35.68;nan;93872.13;5017462;28;20201;-93
2022/06/05 01:29:27;;;;;;;8.33;6.60;;;;;;;36.24;nan;93869.22;4995268;28;20672;-94
2022/06/05 01:32:23;;;;;;;8.63;6.87;;;;;;;35.15;nan;93858.06;5030761;28;20795;-92
2022/06/05 01:35:20;;;;;;;8.13;6.10;;;;;;;35.80;nan;93852.91;5010032;28;20734;-93
2022/06/05 01:38:10;;;;;;;7.90;6.00;;;;;;;36.70;nan;93860.66;5015256;28;20261;-92
2022/06/05 01:41:02;;;;;;;8.27;7.47;;;;;;;36.16;nan;93869.47;5015879;28;20305;-93
2022/06/05 01:43:50;;;;;;;7.10;6.40;;;;;;;35.56;nan;93857.09;5016076;28;20340;-92
2022/06/05 01:46:38;;;;;;;14.43;6.77;;;;;;;35.65;nan;93850.31;4994179;28;20278;-92
2022/06/05 01:49:41;;;;;;;7.43;6.73;;;;;;;35.41;nan;93856.03;4997286;28;20277;-92
2022/06/05 01:52:37;;;;;;;8.83;6.93;;;;;;;34.69;nan;93853.97;4996522;28;20193;-93
2022/06/05 01:55:28;;;;;;;7.97;7.17;;;;;;;35.35;nan;93848.16;5016400;28;20269;-93
2022/06/05 01:58:17;;;;;;;6.53;5.93;;;;;;;35.10;nan;93841.44;5000536;28;20206;-93
2022/06/05 02:01:07;;;;;;;8.20;7.50;;;;;;;35.95;nan;93839.38;5005639;28;20652;-92
2022/06/05 02:04:00;;;;;;;7.97;7.17;;;;;;;34.36;nan;93827.03;4999736;28;20198;-92
2022/06/05 02:06:53;;;;;;;9.17;7.57;;;;;;;35.70;nan;93836.38;5013209;28;20206;-92
2022/06/05 02:09:45;;;;;;;12.13;7.77;;;;;;;35.04;nan;93821.91;5030219;28;20202;-91
2022/06/05 02:12:29;;;;;;;9.67;7.63;;;;;;;34.81;nan;93824.59;5015849;28;20226;-92
2022/06/05 02:15:14;;;;;;;8.23;5.87;;;;;;;35.68;nan;93831.31;5015573;28;20253;-92
2022/06/05 02:18:00;;;;;;;8.13;7.33;;;;;;;35.10;nan;93823.97;4991190;28;20207;-92
2022/06/05 02:20:44;;;;;;;11.90;8.03;;;;;;;35.93;nan;93825.53;5005945;28;20229;-93
2022/06/05 02:23:34;;;;;;;10.60;7.17;;;;;;;36.54;nan;93820.25;5008769;28;20198;-92
2022/06/05 02:26:18;;;;;;;10.87;8.63;;;;;;;35.39;nan;93810.16;5015453;28;20199;-93
2022/06/05 02:29:18;;;;;;;10.67;7.80;;;;;;;35.85;nan;93811.19;5016859;28;20261;-92
2022/06/05 02:32:29;;;;;;;9.20;8.10;;;;;;;34.97;nan;93799.53;5033605;28;20206;-93
2022/06/05 02:35:13;;;;;;;9.23;7.90;;;;;;;34.31;nan;93790.78;5023301;28;20217;-93
2022/06/05 02:38:03;;;;;;;8.73;7.63;;;;;;;34.60;nan;93788.69;5006204;28;20221;-91
2022/06/05 02:40:56;;;;;;;7.57;6.80;;;;;;;34.05;nan;93786.19;5010492;28;20222;-93
2022/06/05 02:44:29;;;;;;;9.23;7.43;;;;;;;34.94;nan;93777.72;5006123;28;20207;-92
2022/06/05 02:47:22;;;;;;;9.97;7.40;;;;;;;34.29;nan;93773.34;5014475;28;20577;-93
2022/06/05 02:50:10;;;;;;;8.00;7.30;;;;;;;33.30;nan;93762.13;5034037;28;20241;-92
2022/06/05 02:53:00;;;;;;;8.00;6.63;;;;;;;34.53;nan;93749.53;5020406;28;20202;-92
2022/06/05 02:55:44;;;;;;;8.00;7.27;;;;;;;33.87;nan;93742.94;5011893;28;20203;-92
2022/06/05 02:58:30;;;;;;;9.00;7.53;;;;;;;34.56;nan;93742.22;5023834;28;20205;-92
2022/06/05 03:04:18;;;;;;;8.67;6.37;;;;;;;34.50;nan;93739.44;5016699;28;20723;-92
2022/06/05 03:07:04;;;;;;;7.50;6.33;;;;;;;33.59;nan;93738.34;5000174;28;20214;-92
2022/06/05 03:09:48;;;;;;;8.80;6.47;;;;;;;34.54;nan;93744.44;5035595;28;20202;-92
2022/06/05 03:12:33;;;;;;;9.80;6.77;;;;;;;33.23;nan;93734.66;5018068;28;20246;-92
2022/06/05 03:15:18;;;;;;;9.97;6.53;;;;;;;32.72;nan;93731.13;5006955;28;20226;-90
2022/06/05 03:18:02;;;;;;;9.43;6.83;;;;;;;34.52;nan;93736.47;5010887;28;20198;-92
2022/06/05 03:20:46;;;;;;;10.13;6.97;;;;;;;34.59;nan;93723.22;5004754;28;20303;-91
2022/06/05 03:23:32;;;;;;;8.57;7.13;;;;;;;34.35;nan;93717.94;5003902;28;20198;-90
2022/06/05 03:26:16;;;;;;;8.17;6.70;;;;;;;34.96;nan;93713.63;5004591;28;20214;-92
2022/06/05 03:29:00;;;;;;;7.93;7.17;;;;;;;35.05;nan;93720.69;5005475;28;20230;-93
2022/06/05 03:31:45;;;;;;;8.47;7.47;;;;;;;35.38;nan;93724.22;5028806;28;20242;-93
2022/06/05 03:34:30;;;;;;;8.03;6.80;;;;;;;34.89;nan;93725.44;5024909;28;20619;-92
2022/06/05 03:37:14;;;;;;;8.77;6.37;;;;;;;35.79;nan;93717.31;5004139;28;20202;-90
2022/06/05 03:39:59;;;;;;;10.27;6.83;;;;;;;35.59;nan;93721.47;5004849;28;20237;-93
2022/06/05 03:42:43;;;;;;;8.00;6.07;;;;;;;34.60;nan;93704.28;5012752;28;20264;-93
2022/06/05 03:45:28;;;;;;;8.80;5.83;;;;;;;33.61;nan;93706.34;4999066;28;20198;-92
2022/06/05 03:48:13;;;;;;;8.57;6.00;;;;;;;34.86;nan;93712.41;5034502;28;20202;-92
2022/06/05 03:50:58;;;;;;;7.17;5.00;;;;;;;34.72;nan;93706.91;4980939;28;20202;-92
2022/06/05 03:53:43;;;;;;;6.10;5.53;;;;;;;35.17;nan;93706.53;5013087;28;20205;-93
2022/06/05 03:56:29;;;;;;;8.30;5.27;;;;;;;35.03;nan;93697.44;5015736;28;20206;-92
2022/06/05 03:59:13;;;;;;;6.03;4.97;;;;;;;34.24;nan;93684.75;5027322;28;20264;-92
2022/06/05 04:01:57;;;;;;;12.20;4.70;;;;;;;35.92;nan;93683.41;5004326;28;20685;-95
2022/06/05 04:04:41;;;;;;;5.50;5.00;;;;;;;35.96;nan;93677.47;5001311;28;20210;-93
2022/06/05 04:07:26;;;;;;;7.63;5.53;;;;;;;34.32;nan;93661.28;5012317;28;20205;-92
2022/06/05 04:10:13;;;;;;;6.37;5.23;;;;;;;35.24;nan;93663.41;5032141;28;20194;-94
2022/06/05 04:12:57;;;;;;;6.07;5.47;;;;;;;34.95;nan;93662.69;5021622;28;20226;-92
2022/06/05 04:15:42;;;;;;;6.40;4.90;;;;;;;34.32;nan;93655.44;5018671;28;20194;-92
2022/06/05 04:18:26;;;;;;;5.70;5.20;;;;;;;34.95;nan;93654.66;5003224;28;20565;-91
2022/06/05 04:21:13;;;;;;;7.20;5.07;;;;;;;33.90;nan;93637.47;5031704;28;20222;-92
2022/06/05 04:23:58;;;;;;;9.30;4.87;;;;;;;34.29;nan;93642.44;5033280;28;20203;-92
2022/06/05 04:26:44;;;;;;;7.97;4.37;;;;;;;34.52;nan;93652.06;5020018;28;20726;-92
2022/06/05 04:29:28;;;;;;;9.13;5.03;;;;;;;34.93;nan;93639.47;4995951;28;20711;-91
2022/06/05 04:32:12;;;;;;;8.10;5.10;;;;;;;35.16;nan;93628.66;5017893;28;20265;-91
2022/06/05 04:34:56;;;;;;;4.93;3.97;;;;;;;34.51;nan;93630.25;5014683;28;20285;-89
2022/06/05 04:37:41;;;;;;;4.73;4.27;;;;;;;35.36;nan;93627.41;5018269;28;20206;-92
2022/06/05 04:40:27;;;;;;;7.97;4.20;;;;;;;35.62;nan;93639.03;5016818;28;20277;-94
2022/06/05 04:43:11;;;;;;;14.77;4.47;;;;;;;36.20;nan;93633.00;5004367;28;20274;-93
2022/06/05 04:45:55;;;;;;;7.27;4.70;;;;;;;36.07;nan;93617.31;5003154;28;20203;-94
2022/06/05 04:48:40;;;;;;;5.83;4.53;;;;;;;35.41;nan;93620.69;5014581;28;20697;-92
2022/06/05 04:51:25;;;;;;;8.80;4.07;;;;;;;37.10;nan;93611.09;4993993;28;20225;-92
2022/06/05 04:54:12;;;;;;;12.77;4.67;;;;;;;35.30;nan;93607.91;5009784;28;20318;-92
2022/06/05 04:56:57;;;;;;;8.77;4.40;;;;;;;35.78;nan;93610.91;5017803;28;20209;-94
2022/06/05 04:59:41;;;;;;;11.63;4.70;;;;;;;36.18;nan;93603.88;5032090;28;20222;-93
2022/06/05 05:02:27;;;;;;;5.00;4.37;;;;;;;36.11;nan;93617.19;5009381;28;20261;-92
2022/06/05 05:05:11;;;;;;;7.53;4.63;;;;;;;36.62;nan;93606.84;5005354;28;20222;-93
2022/06/05 05:07:56;;;;;;;4.37;3.97;;;;;;;37.72;nan;93616.19;5009895;28;20329;-91
2022/06/05 05:10:42;;;;;;;5.83;3.90;;;;;;;37.31;nan;93610.38;5018913;28;20206;-93
2022/06/05 05:13:26;;;;;;;5.87;4.17;;;;;;;36.90;nan;93600.09;5031303;28;20268;-93
2022/06/05 05:16:11;;;;;;;10.00;3.97;;;;;;;36.82;nan;93588.69;5017882;28;20205;-92
2022/06/05 05:18:55;;;;;;;4.17;3.67;;;;;;;37.52;nan;93605.25;5010545;28;20265;-93
2022/06/05 05:21:40;;;;;;;4.93;3.67;;;;;;;37.73;nan;93603.00;5011998;28;20272;-93
2022/06/05 05:24:24;;;;;;;7.20;4.00;;;;;;;38.09;nan;93606.06;5011467;28;20203;-93
2022/06/05 05:27:09;;;;;;;6.20;3.67;;;;;;;38.58;nan;93608.50;5033605;28;20304;-93
2022/06/05 05:29:53;;;;;;;9.37;3.90;;;;;;;38.09;nan;93611.91;5001976;28;20332;-93
2022/06/05 05:32:37;;;;;;;4.67;3.60;;;;;;;38.80;nan;93598.81;5034632;28;20218;-93
2022/06/05 05:35:22;;;;;;;5.97;3.57;;;;;;;37.36;nan;93605.81;5011439;28;20253;-93
2022/06/05 05:38:07;;;;;;;6.20;3.67;;;;;;;38.15;nan;93594.13;5017991;28;20748;-93
2022/06/05 05:43:54;;;;;;;5.00;3.37;;;;;;;38.37;nan;93596.88;5008791;28;20217;-94
2022/06/05 05:46:38;;;;;;;7.37;3.67;;;;;;;37.70;nan;93587.03;5000642;28;20202;-91
2022/06/05 05:49:22;;;;;;;5.93;3.63;;;;;;;38.70;nan;93596.28;5010908;28;20206;-95
2022/06/05 05:52:07;;;;;;;5.93;3.40;;;;;;;37.51;nan;93592.13;5016230;28;20542;-94
2022/06/05 05:54:51;;;;;;;8.17;3.30;;;;;;;38.37;nan;93599.09;5017552;28;20202;-94
2022/06/05 05:57:35;;;;;;;5.77;3.87;;;;;;;38.88;nan;93597.06;5002976;28;20253;-95
2022/06/05 06:00:20;;;;;;;8.60;3.60;;;;;;;39.00;nan;93602.44;5017271;28;20291;-94
2022/06/05 06:03:04;;;;;;;4.03;3.07;;;;;;;38.28;nan;93587.00;5009256;28;20245;-95
2022/06/05 06:05:48;;;;;;;5.40;3.63;;;;;;;39.36;nan;93595.00;5017782;28;20210;-94
2022/06/05 06:08:33;;;;;;;4.30;3.30;;;;;;;38.78;nan;93583.53;5009749;28;20274;-95
2022/06/05 06:11:17;;;;;;;9.77;3.77;;;;;;;38.60;nan;93587.94;5013367;28;20263;-93
2022/06/05 06:14:02;;;;;;;5.40;3.03;;;;;;;39.20;nan;93583.94;5007829;28;20258;-94
2022/06/05 06:16:46;;;;;;;4.70;2.93;;;;;;;39.31;nan;93587.88;5019670;28;20194;-93
2022/06/05 06:19:31;;;;;;;3.43;2.80;;;;;;;39.19;nan;93589.09;5003925;28;20195;-93
2022/06/05 06:22:16;;;;;;;4.33;3.47;;;;;;;39.35;nan;93584.03;5021801;28;20206;-95
2022/06/05 06:25:03;;;;;;;5.00;2.60;;;;;;;37.52;nan;93599.41;5034059;28;20201;-95
2022/06/05 06:27:47;;;;;;;6.30;3.20;;;;;;;38.25;nan;93603.22;5019334;28;20596;-93
2022/06/05 06:30:33;;;;;;;9.17;3.20;;;;;;;39.22;nan;93610.25;5027640;28;20194;-93
2022/06/05 06:33:17;;;;;;;4.63;2.77;;;;;;;39.04;nan;93602.25;5036278;28;20544;-95
2022/06/05 06:36:07;;;;;;;3.90;2.80;;;;;;;39.52;nan;93608.94;5009498;28;20256;-92
2022/06/05 06:38:51;;;;;;;6.18;2.92;;;;;;;39.71;nan;93620.56;5020119;28;20202;-92
2022/06/05 06:41:37;;;;;;;5.57;2.72;;;;;;;42.07;nan;93645.06;5031583;28;20229;-94
2022/06/05 06:44:22;;;;;;;6.03;2.90;;;;;;;40.54;nan;93748.25;5008310;28;20202;-93
2022/06/05 06:47:07;;;;;;;4.07;2.67;;;;;;;35.51;nan;93803.31;5018857;28;20344;-91
2022/06/05 06:49:52;;;;;;;4.10;2.87;;;;;;;39.71;nan;93737.94;5035943;28;20217;-94
2022/06/05 06:52:37;;;;;;;4.33;3.10;;;;;;;36.95;nan;93816.84;5006657;28;20723;-93
2022/06/05 06:55:21;;;;;;;4.05;2.75;;;;;;;38.75;nan;93796.06;5004088;28;20198;-92
2022/06/05 06:58:05;;;;;;;4.07;2.43;;;;;;;38.20;nan;93801.00;5006100;28;20416;-93
2022/06/05 07:00:49;;;;;;;4.28;2.95;;;;;;;39.93;nan;93803.78;5008604;28;20724;-94
2022/06/05 07:03:35;;;;;;;5.03;3.00;;;;;;;40.93;nan;93797.81;5008332;28;20722;-91
2022/06/05 07:06:20;;;;;;;3.78;2.97;;;;;;;38.40;nan;93785.59;5019672;28;20226;-95
2022/06/05 07:09:04;;;;;;;6.45;3.20;;;;;;;39.63;nan;93791.06;5026335;28;20190;-92
2022/06/05 07:11:49;;;;;;;3.33;3.03;;;;;;;41.73;nan;93785.91;5037859;28;20243;-95
2022/06/05 07:14:34;;;;;;;6.88;3.00;;;;;;;41.53;nan;93799.41;5001675;28;20731;-94
2022/06/05 07:17:18;;;;;;;8.18;2.70;;;;;;;41.65;nan;93798.81;5009620;28;20639;-94
2022/06/05 07:20:03;;;;;;;6.05;2.65;;;;;;;40.19;nan;93781.34;5010527;28;20767;-95
2022/06/05 07:22:47;;;;;;;4.78;2.70;;;;;;;42.81;nan;93783.97;5028757;28;20260;-95
2022/06/05 07:25:33;;;;;;;4.65;2.67;;;;;;;43.55;nan;93791.59;5018963;28;20210;-95
2022/06/05 07:28:18;;;;;;;6.50;3.08;;;;;;;42.57;nan;93801.44;5010987;28;20197;-94
2022/06/05 07:31:04;;;;;;;7.22;2.58;;;;;;;43.60;nan;93795.03;5018946;28;20206;-94
2022/06/05 07:33:51;;;;;;;7.47;2.83;;;;;;;43.51;nan;93788.19;5017529;28;20205;-94
2022/06/05 07:36:37;;;;;;;6.78;2.80;;;;;;;43.25;nan;93804.41;5029198;28;20194;-96
2022/06/05 07:39:21;;;;;;;5.63;2.97;;;;;;;41.91;nan;93821.03;5007748;28;20703;-93
2022/06/05 07:42:06;;;;;;;6.20;2.80;;;;;;;41.58;nan;93827.13;5020722;28;20697;-93
2022/06/05 07:44:50;;;;;;;3.97;2.97;;;;;;;41.15;nan;93829.16;5000508;28;20230;-94
2022/06/05 07:47:35;;;;;;;5.40;2.80;;;;;;;40.94;nan;93834.53;5014519;28;20229;-92
2022/06/05 07:50:19;;;;;;;6.07;3.05;;;;;;;40.61;nan;93825.78;5007637;28;20201;-93
2022/06/05 07:56:06;;;;;;;4.68;3.25;;;;;;;41.01;nan;93838.59;5016509;28;20209;-92
2022/06/05 07:58:50;;;;;;;6.38;3.70;;;;;;;40.69;nan;93825.41;5015792;28;20205;-95
2022/06/05 08:01:35;;;;;;;10.82;3.92;;;;;;;41.73;nan;93821.22;5029990;28;20697;-95
2022/06/05 08:04:19;;;;;;;5.85;3.83;;;;;;;41.76;nan;93849.03;5018569;28;20198;-94
2022/06/05 08:07:06;;;;;;;4.88;4.15;;;;;;;39.19;nan;93875.72;5013957;28;20734;-94
2022/06/05 08:09:55;;;;;;;6.28;4.63;;;;;;;40.90;nan;93878.09;5017814;28;20202;-94
2022/06/05 08:12:39;;;;;;;12.32;9.75;;;;;;;39.41;nan;93859.47;5019459;28;20225;-94
2022/06/05 08:15:23;;;;;;;7.90;4.95;;;;;;;41.17;nan;93870.22;5002561;28;20210;-92
2022/06/05 08:18:09;;;;;;;6.13;5.15;;;;;;;42.40;nan;93874.56;5019365;28;20198;-94
2022/06/05 08:20:54;;;;;;;10.68;8.90;;;;;;;42.68;nan;93870.09;5016558;28;20380;-89
2022/06/05 08:23:40;;;;;;;7.28;4.95;;;;;;;40.47;nan;93862.38;5028293;28;20272;-94
2022/06/05 08:26:25;;;;;;;5.78;4.40;;;;;;;43.43;nan;93871.97;5011373;28;20279;-93
2022/06/05 08:29:09;;;;;;;7.47;4.70;;;;;;;42.93;nan;93868.81;5028245;28;20202;-94
2022/06/05 08:31:56;;;;;;;10.02;5.15;;;;;;;43.31;nan;93869.69;5006527;28;20580;-93
2022/06/05 08:34:41;;;;;;;6.63;4.68;;;;;;;41.61;nan;93878.44;5012752;28;20304;-93
2022/06/05 08:44:13;;;;;;;5.55;4.43;;;;;;;43.02;nan;93885.25;5032421;28;20217;-93
2022/06/05 08:47:08;;;;;;;4.55;4.15;;;;;;;43.47;nan;93877.63;5031512;28;20267;-94
2022/06/05 08:50:03;;;;;;;8.18;4.82;;;;;;;42.26;nan;93870.06;5033065;28;20217;-92
2022/06/05 08:52:57;;;;;;;9.55;5.22;;;;;;;41.27;nan;93862.44;5018663;28;20202;-92
2022/06/05 08:55:46;;;;;;;6.30;4.75;;;;;;;40.61;nan;93858.09;5012408;28;20201;-94
2022/06/05 08:58:55;;;;;;;5.82;4.85;;;;;;;40.14;nan;93856.44;5020276;28;20590;-91
2022/06/05 09:01:49;;;;;;;7.30;5.22;;;;;;;39.77;nan;93857.25;5014824;28;20225;-94
2022/06/05 09:04:48;;;;;;;8.90;5.32;;;;;;;40.10;nan;93869.09;5015413;28;20250;-94
2022/06/05 09:07:40;;;;;;;7.05;5.80;;;;;;;40.23;nan;93881.78;4992447;28;20238;-92
2022/06/05 09:10:31;;;;;;;7.15;6.15;;;;;;;39.93;nan;93880.09;4989122;28;20274;-93
2022/06/05 09:13:25;;;;;;;6.38;5.53;;;;;;;39.31;nan;93884.03;4999288;28;20238;-94
2022/06/05 09:16:23;;;;;;;7.82;5.53;;;;;;;40.65;nan;93887.31;5006345;28;20211;-92
2022/06/05 09:19:08;;;;;;;11.23;5.77;;;;;;;40.49;nan;93888.00;5012529;28;20291;-93
2022/06/05 09:22:11;;;;;;;7.40;5.90;;;;;;;40.50;nan;93898.22;4994002;28;20595;-93
2022/06/05 09:25:13;;;;;;;7.20;6.03;;;;;;;39.26;nan;93897.41;4993044;28;20301;-93
2022/06/05 09:28:24;;;;;;;6.35;5.65;;;;;;;40.31;nan;93892.44;4976726;28;20203;-93
2022/06/05 09:31:14;;;;;;;9.40;6.13;;;;;;;41.03;nan;93893.69;4997618;28;20600;-94
2022/06/05 09:34:03;;;;;;;7.18;6.15;;;;;;;39.63;nan;93897.41;4983377;28;20238;-92
2022/06/05 09:37:24;;;;;;;9.05;6.22;;;;;;;38.90;nan;93898.75;4986900;28;20210;-94
2022/06/05 09:40:23;;;;;;;8.75;6.32;;;;;;;40.71;nan;93889.97;5010262;28;20235;-95
2022/06/05 09:43:33;;;;;;;7.00;6.30;;;;;;;38.74;nan;93889.09;4990801;28;20262;-90
2022/06/05 09:46:42;;;;;;;7.07;6.07;;;;;;;40.46;nan;93886.66;4986119;28;20202;-94
2022/06/05 09:49:32;;;;;;;8.30;5.72;;;;;;;41.44;nan;93887.31;5003802;28;20230;-93
2022/06/05 09:52:24;;;;;;;8.82;5.60;;;;;;;40.06;nan;93889.78;5000402;28;20203;-93
2022/06/05 09:55:08;;;;;;;10.48;6.38;;;;;;;41.72;nan;93888.22;4984894;28;20212;-94
2022/06/05 09:58:27;;;;;;;14.40;6.55;;;;;;;42.85;nan;93886.94;5001664;28;20203;-94
2022/06/05 10:01:34;;;;;;;6.95;6.18;;;;;;;43.54;nan;93884.63;5000807;28;20226;-94
2022/06/05 10:04:22;;;;;;;5.78;4.95;;;;;;;43.67;nan;93881.72;5006502;28;20230;-94
2022/06/05 10:07:16;;;;;;;7.10;5.53;;;;;;;43.10;nan;93878.19;5015849;28;20298;-93
2022/06/05 10:10:07;;;;;;;6.00;5.43;;;;;;;43.48;nan;93866.53;5000850;28;20245;-94
2022/06/05 10:13:02;;;;;;;9.07;5.57;;;;;;;43.64;nan;93865.63;4997013;28;20231;-94
2022/06/05 10:16:31;;;;;;;5.93;4.80;;;;;;;45.30;nan;93866.84;4996339;28;20267;-93
2022/06/05 10:19:32;;;;;;;6.47;5.20;;;;;;;45.76;nan;93866.78;4991091;28;20690;-94
2022/06/05 10:22:26;;;;;;;7.05;4.82;;;;;;;47.25;nan;93861.13;4997138;28;20671;-94
2022/06/05 10:25:10;;;;;;;8.80;4.65;;;;;;;46.21;nan;93857.97;5017017;28;20570;-93
2022/06/05 10:27:59;;;;;;;12.30;4.55;;;;;;;47.33;nan;93860.56;5018701;28;20214;-94
2022/06/05 10:30:56;;;;;;;5.10;4.55;;;;;;;45.75;nan;93841.69;5029271;28;20226;-93
2022/06/05 10:33:54;;;;;;;6.63;4.55;;;;;;;45.67;nan;93848.16;4984860;28;20198;-93
2022/06/05 10:36:44;;;;;;;5.95;4.78;;;;;;;43.88;nan;93834.00;5015677;28;20679;-95
2022/06/05 10:39:40;;;;;;;9.90;5.30;;;;;;;43.64;nan;93829.53;5000634;28;20198;-96
2022/06/05 10:42:33;;;;;;;6.82;5.05;;;;;;;45.10;nan;93825.16;5009414;28;20196;-95
2022/06/05 10:45:46;;;;;;;7.22;4.95;;;;;;;45.27;nan;93830.03;5005863;28;20310;-94
2022/06/05 10:48:33;;;;;;;9.65;5.28;;;;;;;44.41;nan;93825.00;5017769;28;20198;-95
2022/06/05 10:51:33;;;;;;;8.18;5.05;;;;;;;45.21;nan;93812.66;4999626;28;21216;-94
2022/06/05 10:54:35;;;;;;;12.10;5.53;;;;;;;47.88;nan;93817.25;5013466;28;20195;-94
2022/06/05 10:57:30;;;;;;;7.55;5.75;;;;;;;45.61;nan;93809.34;5000348;28;20570;-94
2022/06/05 11:00:27;;;;;;;5.95;5.32;;;;;;;46.37;nan;93815.34;5007553;28;20319;-93
2022/06/05 11:03:16;;;;;;;9.63;5.40;;;;;;;45.29;nan;93806.94;5014690;28;20725;-93
2022/06/05 11:06:19;;;;;;;7.78;5.00;;;;;;;46.86;nan;93800.81;4994162;28;20234;-93
2022/06/05 11:09:34;;;;;;;5.50;4.95;;;;;;;48.87;nan;93795.50;4998566;28;20734;-94
2022/06/05 11:15:45;;;;;;;7.45;5.72;;;;;;;49.21;nan;93788.34;5012222;28;20617;-91
2022/06/05 11:18:51;;;;;;;8.85;5.43;;;;;;;48.33;nan;93775.94;4991898;28;20269;-94
2022/06/05 11:21:37;;;;;;;7.75;5.75;;;;;;;48.56;nan;93772.66;4987777;28;20237;-94
2022/06/05 11:24:30;;;;;;;6.38;5.78;;;;;;;47.86;nan;93767.59;4995011;28;20210;-94
2022/06/05 11:27:42;;;;;;;6.22;5.70;;;;;;;50.17;nan;93776.00;5000757;28;20272;-94
2022/06/05 11:31:05;;;;;;;6.38;5.45;;;;;;;49.13;nan;93768.19;4993099;28;20285;-94
2022/06/05 11:34:07;;;;;;;6.07;5.43;;;;;;;51.28;nan;93772.28;4983596;28;20195;-93
2022/06/05 11:37:10;;;;;;;8.77;5.88;;;;;;;50.10;nan;93769.81;4994458;28;20653;-96
2022/06/05 11:40:16;;;;;;;9.68;5.43;;;;;;;51.38;nan;93777.34;4995863;28;20337;-95
2022/06/05 11:43:23;;;;;;;7.30;5.15;;;;;;;50.28;nan;93761.63;5003935;28;20694;-94
2022/06/05 11:46:09;;;;;;;5.25;4.78;;;;;;;50.35;nan;93758.81;4997672;28;20210;-94
2022/06/05 11:49:05;;;;;;;7.00;5.28;;;;;;;49.98;nan;93752.25;5000212;28;20210;-95
2022/06/05 11:52:20;;;;;;;6.15;5.25;;;;;;;46.34;nan;93751.84;4994405;28;20191;-95
2022/06/05 11:55:20;;;;;;;7.07;4.70;;;;;;;48.74;nan;93744.47;4997572;28;20202;-94
2022/06/05 11:58:10;;;;;;;7.47;4.97;;;;;;;52.01;nan;93753.72;4999393;28;20637;-96
2022/06/05 12:01:11;;;;;;;9.15;5.20;;;;;;;50.39;nan;93756.19;4984531;28;20242;-94
2022/06/05 12:04:07;;;;;;;5.88;4.82;;;;;;;52.59;nan;93761.78;4984103;28;20195;-94
2022/06/05 12:06:55;;;;;;;8.45;4.60;;;;;;;52.99;nan;93768.50;5005853;28;20330;-96
2022/06/05 12:09:53;;;;;;;9.82;4.57;;;;;;;51.52;nan;93762.75;5012033;28;20254;-94
2022/06/05 12:12:47;;;;;;;7.93;4.50;;;;;;;52.61;nan;93764.59;5010740;28;20334;-94
2022/06/05 12:15:58;;;;;;;5.30;3.75;;;;;;;51.58;nan;93753.22;5010281;28;20222;-95
2022/06/05 12:18:53;;;;;;;8.75;4.55;;;;;;;49.47;nan;93743.84;5009469;28;20702;-96
2022/06/05 12:21:56;;;;;;;5.30;4.53;;;;;;;49.39;nan;93736.25;5007627;28;20351;-96
2022/06/05 12:25:28;;;;;;;6.15;5.55;;;;;;;46.66;nan;93731.78;5011713;28;20202;-95
2022/06/05 12:28:42;;;;;;;5.65;4.90;;;;;;;48.56;16.83;93722.09;5093995;27;20554;-68
2022/06/05 12:31:31;;;;;;;6.38;4.72;;;;;;;50.08;15.87;93721.56;5095363;28;20192;-69
2022/06/05 12:34:45;;;;;;;6.03;5.00;;;;;;;50.56;15.62;93717.41;5092997;28;20224;-67
2022/06/05 12:37:36;;;;;;;7.93;4.70;;;;;;;51.14;15.29;93722.06;5090139;28;21063;-67
2022/06/05 12:40:28;;;;;;;5.13;4.20;;;;;;;51.20;14.71;93719.25;5095707;28;20201;-68
2022/06/05 12:43:23;;;;;;;6.25;4.28;;;;;;;51.51;14.34;93725.47;5089252;28;20574;-68
2022/06/05 12:46:40;;;;;;;6.10;4.78;;;;;;;48.94;16.39;93713.09;5089377;28;20188;-68
2022/06/05 12:49:53;;;;;;;9.43;5.10;;;;;;;49.97;16.03;93718.75;5090941;28;20235;-68
2022/06/05 12:52:53;;;;;;;8.35;4.45;;;;;;;52.65;14.11;93725.31;5092812;28;20251;-69
2022/06/05 12:55:44;;;;;;;8.70;5.00;;;;;;;49.38;16.15;93705.06;5092597;28;20204;-68
2022/06/05 12:58:58;;;;;;;5.07;4.57;;;;;;;49.70;15.92;93713.59;5099644;28;20254;-68
2022/06/05 13:01:58;;;;;;;5.07;4.63;;;;;;;49.09;16.04;93706.00;5087200;28;20222;-68
2022/06/05 13:04:51;;;;;;;5.95;5.30;;;;;;;47.80;17.02;93690.78;5078510;28;20570;-69
2022/06/05 13:07:49;;;;;;;6.25;5.63;;;;;;;46.90;17.59;93675.22;5066476;28;20243;-71
2022/06/05 13:10:45;;;;;;;8.25;5.00;;;;;;;46.18;17.93;93664.00;5063136;28;20565;-69
2022/06/05 13:13:48;;;;;;;10.30;5.30;;;;;;;48.02;17.09;93652.72;5066142;28;20282;-69
2022/06/05 13:16:44;;;;;;;5.75;5.25;;;;;;;47.68;16.51;93659.06;5077008;28;20193;-70
2022/06/05 13:19:42;;;;;;;6.10;5.53;;;;;;;46.37;17.98;93667.13;5072304;28;20246;-69
2022/06/05 13:22:39;;;;;;;6.35;5.00;;;;;;;45.48;18.74;93679.19;5067718;28;20599;-70
2022/06/05 13:25:49;;;;;;;6.88;5.38;;;;;;;45.62;19.13;93693.00;5066196;28;20227;-68
2022/06/05 13:28:42;;;;;;;8.57;5.80;;;;;;;45.77;18.75;93699.41;5073339;28;20251;-68
2022/06/05 13:31:45;;;;;;;6.35;5.75;;;;;;;44.58;20.03;93696.06;5058310;28;20284;-68
2022/06/05 13:34:38;;;;;;;7.97;6.03;;;;;;;44.26;20.38;93716.50;5062356;28;20276;-68
2022/06/05 13:37:49;;;;;;;7.28;6.57;;;;;;;43.78;20.94;93713.53;5071258;28;20189;-68
2022/06/05 13:40:51;;;;;;;10.55;6.57;;;;;;;43.51;23.13;93697.41;5059143;28;20212;-68
2022/06/05 13:43:38;;;;;;;14.77;9.43;;;;;;;41.63;32.64;93672.38;5055713;28;20209;-72
2022/06/05 13:46:38;;;;;;;30.70;11.77;;;;;;;40.45;33.67;93659.06;5060263;28;20221;-81
2022/06/05 13:49:44;;;;;;;31.40;14.13;;;;;;;40.84;34.07;93667.47;5045682;28;20682;-75
2022/06/05 13:52:28;;;;;;;18.77;12.73;;;;;;;39.80;34.52;93694.31;5046941;28;20198;-72
2022/06/05 13:55:54;;;;;;;16.90;15.13;;;;;;;39.02;34.90;93711.47;5053586;28;20701;-72
2022/06/05 13:58:52;;;;;;;22.47;16.07;;;;;;;39.46;32.19;93729.47;5062948;28;20248;-75
2022/06/05 14:01:47;;;;;;;31.20;20.37;;;;;;;42.01;29.25;93751.38;5054713;28;20205;-73